Terminal Aerodrome Forecast
Issued by NWS

Home | Current Version | Previous Version | Text Only | Print | Product List | Glossary On
Versions: 1 2 3 4 5 6 7 8 9 10 11 12 13 14 15 16 17
000
FTUS44 KEPZ 251721
TAFTCS
TAF
KTCS 251721Z 2518/2618 18011G18KT P6SM SCT050 BKN120
     FM252100 20010KT P6SM VCTS SCT050CB BKN120
     FM260000 34010G20KT P6SM VCTS SCT050CB BKN100
      TEMPO 2600/2604 VRB25G45KT 1SM +TSRA BKN020CB
     FM260500 33006KT P6SM FEW100 BKN150=

USA.gov is the U.S. government's official web portal to all federal, state and local government web resources and services.